General Aviation Weather

Text Reports

Enter one or more of the following location identifiers separated by a space:

Zip Code, Four-Character ICAO or Three-Character IATA airport codes.

METAR - Aviation Routine Weather Report
KHEZ - Natchez, Mississippi
Updated at 7:55 PM GMT on July 27, 2016 (2:55 PM CDT):
METAR KHEZ 271955Z AUTO 19007KT 5SM SCT008 BKN019 OVC037 23/22 A3001 RMK AO1 LTG DSNT SE P0024
TAF - Terminal Area Forecast
KHEZ - Natchez, Mississippi
Updated at 7:55 PM GMT on July 27, 2016 (2:55 PM CDT):
No TAF is currently available for this location.
Decoded:
No decoded TAF is available.
PIREP - Pilot Weather Report
KHEZ - Natchez, Mississippi
Updated at 7:55 PM GMT on July 27, 2016 (2:55 PM CDT):
No PIREP is currently available for this location.
AIRMET - Airmens Meteorological Information
KHEZ - Natchez, Mississippi
Updated at 7:55 PM GMT on July 27, 2016 (2:55 PM CDT):
No AIRMET is currently available for this location.
SIGMET - Significant Meteorological Information
KHEZ - Natchez, Mississippi
Updated at 7:55 PM GMT on July 27, 2016 (2:55 PM CDT):
No SIGMET is currently available for this location.
NOTAM - Notice to Airmen
KHEZ - Natchez, Mississippi
Updated at 7:55 PM GMT on July 27, 2016 (2:55 PM CDT):
No NOTAM is currently available for this location.
Forecast Area
KHEZ - Natchez, Mississippi
Updated at 7:55 PM GMT on July 27, 2016 (2:55 PM CDT):
No NOTAM is currently available for this location.
Aviation Weather Maps